sensor_id;sensor_type;location;lat;lon;timestamp;P1;durP1;ratioP1;P2;durP2;ratioP2
11604;SDS011;5858;43.076;25.626;2023-06-22T00:00:21;13.35;;;11.02;;
11604;SDS011;5858;43.076;25.626;2023-06-22T00:03:08;11.95;;;10.75;;
11604;SDS011;5858;43.076;25.626;2023-06-22T00:08:51;12.00;;;10.82;;
11604;SDS011;5858;43.076;25.626;2023-06-22T00:39:24;12.23;;;11.02;;
11604;SDS011;5858;43.076;25.626;2023-06-22T00:45:34;12.75;;;11.45;;
11604;SDS011;5858;43.076;25.626;2023-06-22T01:01:46;12.40;;;11.13;;
11604;SDS011;5858;43.076;25.626;2023-06-22T01:04:24;12.30;;;11.07;;
11604;SDS011;5858;43.076;25.626;2023-06-22T01:07:19;12.38;;;11.02;;
11604;SDS011;5858;43.076;25.626;2023-06-22T01:10:07;14.90;;;11.35;;
11604;SDS011;5858;43.076;25.626;2023-06-22T01:17:02;12.23;;;11.05;;
11604;SDS011;5858;43.076;25.626;2023-06-22T01:21:23;12.45;;;11.05;;
11604;SDS011;5858;43.076;25.626;2023-06-22T01:23:21;12.32;;;11.10;;
11604;SDS011;5858;43.076;25.626;2023-06-22T01:26:25;14.88;;;11.35;;
11604;SDS011;5858;43.076;25.626;2023-06-22T01:29:07;12.65;;;11.40;;
11604;SDS011;5858;43.076;25.626;2023-06-22T01:31:38;14.07;;;12.30;;
11604;SDS011;5858;43.076;25.626;2023-06-22T01:34:20;14.05;;;11.23;;
11604;SDS011;5858;43.076;25.626;2023-06-22T01:36:55;16.33;;;11.50;;
11604;SDS011;5858;43.076;25.626;2023-06-22T01:39:30;12.65;;;11.15;;
11604;SDS011;5858;43.076;25.626;2023-06-22T01:42:01;12.80;;;11.55;;
11604;SDS011;5858;43.076;25.626;2023-06-22T01:44:36;14.45;;;12.90;;
11604;SDS011;5858;43.076;25.626;2023-06-22T01:47:09;15.15;;;11.27;;
11604;SDS011;5858;43.076;25.626;2023-06-22T01:49:42;13.95;;;11.90;;
11604;SDS011;5858;43.076;25.626;2023-06-22T01:52:13;14.68;;;11.63;;
11604;SDS011;5858;43.076;25.626;2023-06-22T01:54:41;13.23;;;11.63;;
11604;SDS011;5858;43.076;25.626;2023-06-22T01:57:08;12.15;;;10.95;;
11604;SDS011;5858;43.076;25.626;2023-06-22T01:59:42;13.57;;;12.02;;
11604;SDS011;5858;43.076;25.626;2023-06-22T02:02:16;13.43;;;12.07;;
11604;SDS011;5858;43.076;25.626;2023-06-22T02:04:55;15.85;;;13.02;;
11604;SDS011;5858;43.076;25.626;2023-06-22T02:07:32;13.35;;;11.98;;
11604;SDS011;5858;43.076;25.626;2023-06-22T02:10:10;13.02;;;11.63;;
11604;SDS011;5858;43.076;25.626;2023-06-22T02:12:43;13.73;;;12.27;;
11604;SDS011;5858;43.076;25.626;2023-06-22T02:15:26;12.80;;;11.32;;
11604;SDS011;5858;43.076;25.626;2023-06-22T02:17:58;14.18;;;11.35;;
11604;SDS011;5858;43.076;25.626;2023-06-22T02:20:32;12.15;;;10.93;;
11604;SDS011;5858;43.076;25.626;2023-06-22T02:23:05;14.90;;;11.93;;
11604;SDS011;5858;43.076;25.626;2023-06-22T02:25:45;13.25;;;11.90;;
11604;SDS011;5858;43.076;25.626;2023-06-22T02:28:15;12.68;;;11.30;;
11604;SDS011;5858;43.076;25.626;2023-06-22T02:30:44;13.20;;;11.70;;
11604;SDS011;5858;43.076;25.626;2023-06-22T02:33:15;14.23;;;10.77;;
11604;SDS011;5858;43.076;25.626;2023-06-22T02:35:44;13.18;;;11.40;;
11604;SDS011;5858;43.076;25.626;2023-06-22T02:38:33;14.18;;;12.40;;
11604;SDS011;5858;43.076;25.626;2023-06-22T02:41:03;11.75;;;10.55;;
11604;SDS011;5858;43.076;25.626;2023-06-22T02:43:31;11.88;;;10.68;;
11604;SDS011;5858;43.076;25.626;2023-06-22T02:46:00;14.02;;;11.50;;
11604;SDS011;5858;43.076;25.626;2023-06-22T02:48:28;13.57;;;12.15;;
11604;SDS011;5858;43.076;25.626;2023-06-22T02:51:01;16.25;;;12.38;;
11604;SDS011;5858;43.076;25.626;2023-06-22T02:53:31;14.02;;;11.70;;
11604;SDS011;5858;43.076;25.626;2023-06-22T02:56:02;14.57;;;12.20;;
11604;SDS011;5858;43.076;25.626;2023-06-22T02:58:38;13.05;;;11.65;;
11604;SDS011;5858;43.076;25.626;2023-06-22T03:01:13;12.45;;;11.30;;
11604;SDS011;5858;43.076;25.626;2023-06-22T03:03:41;14.25;;;11.80;;
11604;SDS011;5858;43.076;25.626;2023-06-22T03:06:11;12.52;;;10.63;;
11604;SDS011;5858;43.076;25.626;2023-06-22T03:08:41;11.45;;;10.35;;
11604;SDS011;5858;43.076;25.626;2023-06-22T03:11:17;17.05;;;10.82;;
11604;SDS011;5858;43.076;25.626;2023-06-22T03:13:47;14.60;;;10.10;;
11604;SDS011;5858;43.076;25.626;2023-06-22T03:16:16;10.93;;;9.93;;
11604;SDS011;5858;43.076;25.626;2023-06-22T03:18:45;12.07;;;9.32;;
11604;SDS011;5858;43.076;25.626;2023-06-22T03:21:13;10.93;;;9.63;;
11604;SDS011;5858;43.076;25.626;2023-06-22T03:23:42;9.93;;;8.85;;
11604;SDS011;5858;43.076;25.626;2023-06-22T03:26:12;11.57;;;8.70;;
11604;SDS011;5858;43.076;25.626;2023-06-22T03:28:39;15.18;;;9.70;;
11604;SDS011;5858;43.076;25.626;2023-06-22T03:31:06;11.07;;;9.85;;
11604;SDS011;5858;43.076;25.626;2023-06-22T03:33:48;10.52;;;9.43;;
11604;SDS011;5858;43.076;25.626;2023-06-22T03:36:21;10.82;;;9.10;;
11604;SDS011;5858;43.076;25.626;2023-06-22T03:38:49;11.25;;;8.73;;
11604;SDS011;5858;43.076;25.626;2023-06-22T03:41:19;10.63;;;8.23;;
11604;SDS011;5858;43.076;25.626;2023-06-22T03:43:46;8.98;;;8.07;;
11604;SDS011;5858;43.076;25.626;2023-06-22T03:46:14;9.38;;;7.55;;
11604;SDS011;5858;43.076;25.626;2023-06-22T03:48:41;11.23;;;7.68;;
11604;SDS011;5858;43.076;25.626;2023-06-22T03:51:11;9.88;;;8.70;;
11604;SDS011;5858;43.076;25.626;2023-06-22T03:53:41;9.07;;;8.18;;
11604;SDS011;5858;43.076;25.626;2023-06-22T03:56:10;9.13;;;7.43;;
11604;SDS011;5858;43.076;25.626;2023-06-22T03:58:45;8.35;;;7.43;;
11604;SDS011;5858;43.076;25.626;2023-06-22T04:01:14;12.77;;;8.55;;
11604;SDS011;5858;43.076;25.626;2023-06-22T04:03:42;13.10;;;8.77;;
11604;SDS011;5858;43.076;25.626;2023-06-22T04:06:16;10.77;;;9.18;;
11604;SDS011;5858;43.076;25.626;2023-06-22T04:08:44;13.40;;;9.85;;
11604;SDS011;5858;43.076;25.626;2023-06-22T04:11:13;14.57;;;10.98;;
11604;SDS011;5858;43.076;25.626;2023-06-22T04:13:40;12.02;;;9.35;;
11604;SDS011;5858;43.076;25.626;2023-06-22T04:16:07;15.32;;;9.52;;
11604;SDS011;5858;43.076;25.626;2023-06-22T04:18:34;12.15;;;10.43;;
11604;SDS011;5858;43.076;25.626;2023-06-22T04:21:02;12.55;;;9.63;;
11604;SDS011;5858;43.076;25.626;2023-06-22T04:23:33;13.65;;;8.60;;
11604;SDS011;5858;43.076;25.626;2023-06-22T04:26:01;10.90;;;8.20;;
11604;SDS011;5858;43.076;25.626;2023-06-22T04:28:29;8.38;;;7.57;;
11604;SDS011;5858;43.076;25.626;2023-06-22T04:31:00;7.88;;;7.15;;
11604;SDS011;5858;43.076;25.626;2023-06-22T04:33:31;13.07;;;8.00;;
11604;SDS011;5858;43.076;25.626;2023-06-22T04:35:59;11.70;;;7.93;;
11604;SDS011;5858;43.076;25.626;2023-06-22T04:38:29;9.25;;;7.63;;
11604;SDS011;5858;43.076;25.626;2023-06-22T04:40:59;10.50;;;7.82;;
11604;SDS011;5858;43.076;25.626;2023-06-22T04:43:28;9.85;;;6.70;;
11604;SDS011;5858;43.076;25.626;2023-06-22T04:45:56;10.45;;;8.10;;
11604;SDS011;5858;43.076;25.626;2023-06-22T04:49:04;11.73;;;7.30;;
11604;SDS011;5858;43.076;25.626;2023-06-22T04:53:45;8.40;;;7.07;;
11604;SDS011;5858;43.076;25.626;2023-06-22T04:55:09;9.90;;;7.60;;
11604;SDS011;5858;43.076;25.626;2023-06-22T05:01:06;8.27;;;7.40;;
11604;SDS011;5858;43.076;25.626;2023-06-22T05:03:52;9.18;;;8.25;;
11604;SDS011;5858;43.076;25.626;2023-06-22T05:17:19;9.77;;;7.47;;
11604;SDS011;5858;43.076;25.626;2023-06-22T05:20:06;8.23;;;7.10;;
11604;SDS011;5858;43.076;25.626;2023-06-22T05:22:45;9.82;;;7.72;;
11604;SDS011;5858;43.076;25.626;2023-06-22T05:25:17;12.45;;;8.07;;
11604;SDS011;5858;43.076;25.626;2023-06-22T05:27:58;11.43;;;7.57;;
11604;SDS011;5858;43.076;25.626;2023-06-22T05:30:36;11.05;;;7.82;;
11604;SDS011;5858;43.076;25.626;2023-06-22T05:33:14;9.23;;;8.30;;
11604;SDS011;5858;43.076;25.626;2023-06-22T05:35:41;10.05;;;8.68;;
11604;SDS011;5858;43.076;25.626;2023-06-22T05:38:09;14.65;;;13.35;;
11604;SDS011;5858;43.076;25.626;2023-06-22T05:40:36;12.25;;;10.43;;
11604;SDS011;5858;43.076;25.626;2023-06-22T05:43:11;15.05;;;13.50;;
11604;SDS011;5858;43.076;25.626;2023-06-22T05:45:39;14.98;;;13.40;;
11604;SDS011;5858;43.076;25.626;2023-06-22T05:48:06;12.40;;;11.23;;
11604;SDS011;5858;43.076;25.626;2023-06-22T05:50:36;12.27;;;9.98;;
11604;SDS011;5858;43.076;25.626;2023-06-22T05:53:03;9.35;;;8.23;;
11604;SDS011;5858;43.076;25.626;2023-06-22T05:55:32;9.93;;;8.73;;
11604;SDS011;5858;43.076;25.626;2023-06-22T05:57:59;11.05;;;9.40;;
11604;SDS011;5858;43.076;25.626;2023-06-22T06:00:30;12.73;;;10.95;;
11604;SDS011;5858;43.076;25.626;2023-06-22T06:02:58;13.02;;;9.63;;
11604;SDS011;5858;43.076;25.626;2023-06-22T06:05:40;14.05;;;10.20;;
11604;SDS011;5858;43.076;25.626;2023-06-22T06:08:08;13.50;;;9.73;;
11604;SDS011;5858;43.076;25.626;2023-06-22T06:10:36;10.77;;;8.82;;
11604;SDS011;5858;43.076;25.626;2023-06-22T06:13:05;9.65;;;8.65;;
11604;SDS011;5858;43.076;25.626;2023-06-22T06:15:33;10.25;;;9.25;;
11604;SDS011;5858;43.076;25.626;2023-06-22T06:18:01;11.18;;;8.90;;
11604;SDS011;5858;43.076;25.626;2023-06-22T06:20:30;9.73;;;8.18;;
11604;SDS011;5858;43.076;25.626;2023-06-22T06:22:59;10.05;;;9.05;;
11604;SDS011;5858;43.076;25.626;2023-06-22T06:25:26;13.35;;;10.50;;
11604;SDS011;5858;43.076;25.626;2023-06-22T06:28:07;12.65;;;11.00;;
11604;SDS011;5858;43.076;25.626;2023-06-22T06:30:40;15.32;;;10.63;;
11604;SDS011;5858;43.076;25.626;2023-06-22T06:33:07;12.82;;;11.55;;
11604;SDS011;5858;43.076;25.626;2023-06-22T06:35:36;11.10;;;9.98;;
11604;SDS011;5858;43.076;25.626;2023-06-22T06:41:06;11.10;;;9.55;;
11604;SDS011;5858;43.076;25.626;2023-06-22T06:43:35;10.88;;;9.07;;
11604;SDS011;5858;43.076;25.626;2023-06-22T06:46:02;10.32;;;9.38;;
11604;SDS011;5858;43.076;25.626;2023-06-22T06:48:32;10.40;;;9.43;;
11604;SDS011;5858;43.076;25.626;2023-06-22T06:50:59;11.77;;;10.43;;
11604;SDS011;5858;43.076;25.626;2023-06-22T06:53:27;12.52;;;11.32;;
11604;SDS011;5858;43.076;25.626;2023-06-22T06:55:55;11.57;;;10.38;;
11604;SDS011;5858;43.076;25.626;2023-06-22T06:58:25;14.43;;;11.38;;
11604;SDS011;5858;43.076;25.626;2023-06-22T07:00:52;13.82;;;12.43;;
11604;SDS011;5858;43.076;25.626;2023-06-22T07:03:19;12.82;;;11.20;;
11604;SDS011;5858;43.076;25.626;2023-06-22T07:05:47;12.68;;;11.57;;
11604;SDS011;5858;43.076;25.626;2023-06-22T07:08:14;14.55;;;12.27;;
11604;SDS011;5858;43.076;25.626;2023-06-22T07:10:44;14.18;;;12.70;;
11604;SDS011;5858;43.076;25.626;2023-06-22T07:15:58;12.65;;;11.32;;
11604;SDS011;5858;43.076;25.626;2023-06-22T07:18:26;12.95;;;10.38;;
11604;SDS011;5858;43.076;25.626;2023-06-22T07:20:53;13.82;;;10.52;;
11604;SDS011;5858;43.076;25.626;2023-06-22T07:23:20;11.30;;;10.20;;
11604;SDS011;5858;43.076;25.626;2023-06-22T07:25:49;9.68;;;8.77;;
11604;SDS011;5858;43.076;25.626;2023-06-22T07:28:16;9.93;;;8.93;;
11604;SDS011;5858;43.076;25.626;2023-06-22T07:30:44;9.63;;;8.40;;
11604;SDS011;5858;43.076;25.626;2023-06-22T07:33:11;8.57;;;7.78;;
11604;SDS011;5858;43.076;25.626;2023-06-22T07:35:38;9.38;;;8.57;;
11604;SDS011;5858;43.076;25.626;2023-06-22T07:38:05;10.13;;;9.23;;
11604;SDS011;5858;43.076;25.626;2023-06-22T07:40:37;8.63;;;7.93;;
11604;SDS011;5858;43.076;25.626;2023-06-22T07:43:33;9.20;;;8.30;;
11604;SDS011;5858;43.076;25.626;2023-06-22T07:46:06;9.38;;;8.57;;
11604;SDS011;5858;43.076;25.626;2023-06-22T07:48:36;9.50;;;8.60;;
11604;SDS011;5858;43.076;25.626;2023-06-22T07:51:04;9.13;;;8.23;;
11604;SDS011;5858;43.076;25.626;2023-06-22T07:53:32;11.15;;;8.93;;
11604;SDS011;5858;43.076;25.626;2023-06-22T07:55:59;9.38;;;8.60;;
11604;SDS011;5858;43.076;25.626;2023-06-22T07:58:32;8.35;;;7.65;;
11604;SDS011;5858;43.076;25.626;2023-06-22T08:00:59;8.73;;;7.32;;
11604;SDS011;5858;43.076;25.626;2023-06-22T08:03:28;8.45;;;7.68;;
11604;SDS011;5858;43.076;25.626;2023-06-22T08:05:55;9.43;;;8.52;;
11604;SDS011;5858;43.076;25.626;2023-06-22T08:08:25;8.55;;;7.75;;
11604;SDS011;5858;43.076;25.626;2023-06-22T08:10:52;9.65;;;8.05;;
11604;SDS011;5858;43.076;25.626;2023-06-22T08:13:18;8.68;;;7.75;;
11604;SDS011;5858;43.076;25.626;2023-06-22T08:15:48;8.23;;;7.53;;
11604;SDS011;5858;43.076;25.626;2023-06-22T08:18:17;10.82;;;7.55;;
11604;SDS011;5858;43.076;25.626;2023-06-22T08:20:47;7.65;;;6.78;;
11604;SDS011;5858;43.076;25.626;2023-06-22T08:23:16;9.10;;;7.45;;
11604;SDS011;5858;43.076;25.626;2023-06-22T08:25:44;7.90;;;7.20;;
11604;SDS011;5858;43.076;25.626;2023-06-22T08:28:11;7.85;;;7.05;;
11604;SDS011;5858;43.076;25.626;2023-06-22T08:30:38;8.45;;;7.30;;
11604;SDS011;5858;43.076;25.626;2023-06-22T08:33:08;7.57;;;6.97;;
11604;SDS011;5858;43.076;25.626;2023-06-22T08:35:35;7.30;;;6.72;;
11604;SDS011;5858;43.076;25.626;2023-06-22T08:38:03;8.57;;;7.78;;
11604;SDS011;5858;43.076;25.626;2023-06-22T08:40:30;7.82;;;7.05;;
11604;SDS011;5858;43.076;25.626;2023-06-22T08:42:57;7.85;;;7.22;;
11604;SDS011;5858;43.076;25.626;2023-06-22T08:45:26;8.43;;;7.50;;
11604;SDS011;5858;43.076;25.626;2023-06-22T08:47:53;9.88;;;8.80;;
11604;SDS011;5858;43.076;25.626;2023-06-22T08:50:20;9.23;;;8.35;;
11604;SDS011;5858;43.076;25.626;2023-06-22T08:52:49;9.57;;;8.45;;
11604;SDS011;5858;43.076;25.626;2023-06-22T08:55:22;9.65;;;8.77;;
11604;SDS011;5858;43.076;25.626;2023-06-22T08:57:52;9.30;;;8.38;;
11604;SDS011;5858;43.076;25.626;2023-06-22T09:00:20;9.52;;;8.73;;
11604;SDS011;5858;43.076;25.626;2023-06-22T09:02:47;8.82;;;8.02;;
11604;SDS011;5858;43.076;25.626;2023-06-22T09:05:15;7.90;;;7.30;;
11604;SDS011;5858;43.076;25.626;2023-06-22T09:07:42;8.52;;;7.78;;
11604;SDS011;5858;43.076;25.626;2023-06-22T09:10:09;7.70;;;7.00;;
11604;SDS011;5858;43.076;25.626;2023-06-22T09:12:38;8.80;;;7.90;;
11604;SDS011;5858;43.076;25.626;2023-06-22T09:15:06;8.43;;;7.72;;
11604;SDS011;5858;43.076;25.626;2023-06-22T09:17:33;8.75;;;7.95;;
11604;SDS011;5858;43.076;25.626;2023-06-22T09:20:03;7.88;;;7.28;;
11604;SDS011;5858;43.076;25.626;2023-06-22T09:22:36;8.68;;;7.97;;
11604;SDS011;5858;43.076;25.626;2023-06-22T09:25:09;8.45;;;7.75;;
11604;SDS011;5858;43.076;25.626;2023-06-22T09:27:37;9.30;;;8.32;;
11604;SDS011;5858;43.076;25.626;2023-06-22T09:30:05;8.40;;;7.75;;
11604;SDS011;5858;43.076;25.626;2023-06-22T09:32:36;10.10;;;8.55;;
11604;SDS011;5858;43.076;25.626;2023-06-22T09:35:05;8.88;;;8.00;;
11604;SDS011;5858;43.076;25.626;2023-06-22T09:37:39;8.80;;;8.00;;
11604;SDS011;5858;43.076;25.626;2023-06-22T09:40:19;9.57;;;8.57;;
11604;SDS011;5858;43.076;25.626;2023-06-22T09:42:57;8.98;;;8.15;;
11604;SDS011;5858;43.076;25.626;2023-06-22T09:45:33;9.55;;;8.05;;
11604;SDS011;5858;43.076;25.626;2023-06-22T09:48:03;9.02;;;8.23;;
11604;SDS011;5858;43.076;25.626;2023-06-22T09:50:39;8.52;;;7.72;;
11604;SDS011;5858;43.076;25.626;2023-06-22T09:53:07;9.23;;;8.43;;
11604;SDS011;5858;43.076;25.626;2023-06-22T09:55:35;8.00;;;7.28;;
11604;SDS011;5858;43.076;25.626;2023-06-22T09:58:03;8.40;;;7.38;;
11604;SDS011;5858;43.076;25.626;2023-06-22T10:00:30;8.77;;;7.88;;
11604;SDS011;5858;43.076;25.626;2023-06-22T10:02:59;11.52;;;8.02;;
11604;SDS011;5858;43.076;25.626;2023-06-22T10:05:32;8.68;;;7.90;;
11604;SDS011;5858;43.076;25.626;2023-06-22T10:07:59;10.13;;;7.95;;
11604;SDS011;5858;43.076;25.626;2023-06-22T10:10:27;8.48;;;7.30;;
11604;SDS011;5858;43.076;25.626;2023-06-22T10:12:55;8.73;;;7.95;;
11604;SDS011;5858;43.076;25.626;2023-06-22T10:15:25;9.35;;;8.05;;
11604;SDS011;5858;43.076;25.626;2023-06-22T10:17:55;9.57;;;7.88;;
11604;SDS011;5858;43.076;25.626;2023-06-22T10:20:24;7.95;;;7.25;;
11604;SDS011;5858;43.076;25.626;2023-06-22T10:22:53;7.93;;;7.25;;
11604;SDS011;5858;43.076;25.626;2023-06-22T10:25:21;8.77;;;7.97;;
11604;SDS011;5858;43.076;25.626;2023-06-22T10:28:03;7.88;;;7.18;;
11604;SDS011;5858;43.076;25.626;2023-06-22T10:31:00;8.02;;;7.32;;
11604;SDS011;5858;43.076;25.626;2023-06-22T10:33:32;7.53;;;6.93;;
11604;SDS011;5858;43.076;25.626;2023-06-22T10:36:01;7.25;;;6.72;;
11604;SDS011;5858;43.076;25.626;2023-06-22T10:38:29;8.70;;;6.95;;
11604;SDS011;5858;43.076;25.626;2023-06-22T10:40:56;7.30;;;6.60;;
11604;SDS011;5858;43.076;25.626;2023-06-22T10:43:27;7.20;;;6.55;;
11604;SDS011;5858;43.076;25.626;2023-06-22T10:45:57;7.78;;;7.03;;
11604;SDS011;5858;43.076;25.626;2023-06-22T10:48:25;7.15;;;6.25;;
11604;SDS011;5858;43.076;25.626;2023-06-22T10:50:58;6.90;;;6.38;;
11604;SDS011;5858;43.076;25.626;2023-06-22T10:53:34;7.05;;;6.47;;
11604;SDS011;5858;43.076;25.626;2023-06-22T10:56:01;7.30;;;6.60;;
11604;SDS011;5858;43.076;25.626;2023-06-22T10:58:30;9.05;;;7.10;;
11604;SDS011;5858;43.076;25.626;2023-06-22T11:00:57;7.35;;;6.65;;
11604;SDS011;5858;43.076;25.626;2023-06-22T11:03:26;7.22;;;6.72;;
11604;SDS011;5858;43.076;25.626;2023-06-22T11:05:56;10.30;;;6.88;;
11604;SDS011;5858;43.076;25.626;2023-06-22T11:08:35;6.82;;;6.22;;
11604;SDS011;5858;43.076;25.626;2023-06-22T11:11:02;6.97;;;6.20;;
11604;SDS011;5858;43.076;25.626;2023-06-22T11:13:47;6.95;;;6.25;;
11604;SDS011;5858;43.076;25.626;2023-06-22T11:16:19;7.10;;;6.50;;
11604;SDS011;5858;43.076;25.626;2023-06-22T11:18:47;6.60;;;5.85;;
11604;SDS011;5858;43.076;25.626;2023-06-22T11:21:16;5.65;;;5.15;;
11604;SDS011;5858;43.076;25.626;2023-06-22T11:23:43;6.00;;;5.50;;
11604;SDS011;5858;43.076;25.626;2023-06-22T11:26:16;5.65;;;5.20;;
11604;SDS011;5858;43.076;25.626;2023-06-22T11:28:46;5.78;;;5.28;;
11604;SDS011;5858;43.076;25.626;2023-06-22T11:31:16;6.00;;;5.20;;
11604;SDS011;5858;43.076;25.626;2023-06-22T11:33:50;5.53;;;5.07;;
11604;SDS011;5858;43.076;25.626;2023-06-22T11:36:19;5.80;;;5.30;;
11604;SDS011;5858;43.076;25.626;2023-06-22T11:38:52;5.60;;;5.20;;
11604;SDS011;5858;43.076;25.626;2023-06-22T11:41:19;5.95;;;5.45;;
11604;SDS011;5858;43.076;25.626;2023-06-22T11:43:47;6.25;;;5.63;;
11604;SDS011;5858;43.076;25.626;2023-06-22T11:46:14;6.07;;;5.55;;
11604;SDS011;5858;43.076;25.626;2023-06-22T11:48:41;6.40;;;5.72;;
11604;SDS011;5858;43.076;25.626;2023-06-22T11:51:10;5.57;;;5.15;;
11604;SDS011;5858;43.076;25.626;2023-06-22T11:53:37;5.55;;;5.05;;
11604;SDS011;5858;43.076;25.626;2023-06-22T11:56:05;5.75;;;5.30;;
11604;SDS011;5858;43.076;25.626;2023-06-22T11:58:32;5.97;;;5.47;;
11604;SDS011;5858;43.076;25.626;2023-06-22T12:00:59;6.07;;;5.57;;
11604;SDS011;5858;43.076;25.626;2023-06-22T12:03:26;5.50;;;5.00;;
11604;SDS011;5858;43.076;25.626;2023-06-22T12:05:54;6.28;;;5.68;;
11604;SDS011;5858;43.076;25.626;2023-06-22T12:08:22;6.10;;;5.60;;
11604;SDS011;5858;43.076;25.626;2023-06-22T12:10:52;6.20;;;5.60;;
11604;SDS011;5858;43.076;25.626;2023-06-22T12:13:20;6.50;;;5.53;;
11604;SDS011;5858;43.076;25.626;2023-06-22T12:15:47;6.45;;;5.85;;
11604;SDS011;5858;43.076;25.626;2023-06-22T12:18:16;6.70;;;6.00;;
11604;SDS011;5858;43.076;25.626;2023-06-22T12:20:45;6.18;;;5.68;;
11604;SDS011;5858;43.076;25.626;2023-06-22T12:23:13;5.85;;;5.35;;
11604;SDS011;5858;43.076;25.626;2023-06-22T12:25:44;5.50;;;5.00;;
11604;SDS011;5858;43.076;25.626;2023-06-22T12:28:11;6.20;;;5.70;;
11604;SDS011;5858;43.076;25.626;2023-06-22T12:30:39;7.05;;;5.55;;
11604;SDS011;5858;43.076;25.626;2023-06-22T12:33:06;6.20;;;5.60;;
11604;SDS011;5858;43.076;25.626;2023-06-22T12:38:21;6.10;;;5.60;;
11604;SDS011;5858;43.076;25.626;2023-06-22T12:40:51;6.10;;;5.50;;
11604;SDS011;5858;43.076;25.626;2023-06-22T12:43:18;5.95;;;5.45;;
11604;SDS011;5858;43.076;25.626;2023-06-22T12:45:45;5.43;;;4.93;;
11604;SDS011;5858;43.076;25.626;2023-06-22T12:48:12;6.07;;;5.50;;
11604;SDS011;5858;43.076;25.626;2023-06-22T12:50:40;6.38;;;5.45;;
11604;SDS011;5858;43.076;25.626;2023-06-22T12:53:07;5.47;;;5.07;;
11604;SDS011;5858;43.076;25.626;2023-06-22T12:55:34;5.53;;;5.13;;
11604;SDS011;5858;43.076;25.626;2023-06-22T12:58:04;5.53;;;5.00;;
11604;SDS011;5858;43.076;25.626;2023-06-22T13:00:34;7.18;;;5.45;;
11604;SDS011;5858;43.076;25.626;2023-06-22T13:03:01;6.05;;;5.55;;
11604;SDS011;5858;43.076;25.626;2023-06-22T13:05:28;6.47;;;5.68;;
11604;SDS011;5858;43.076;25.626;2023-06-22T13:07:58;6.40;;;5.82;;
11604;SDS011;5858;43.076;25.626;2023-06-22T13:10:44;6.78;;;5.40;;
11604;SDS011;5858;43.076;25.626;2023-06-22T13:13:13;5.43;;;5.03;;
11604;SDS011;5858;43.076;25.626;2023-06-22T13:15:40;6.28;;;5.70;;
11604;SDS011;5858;43.076;25.626;2023-06-22T13:18:07;6.63;;;5.53;;
11604;SDS011;5858;43.076;25.626;2023-06-22T13:20:41;6.25;;;5.65;;
11604;SDS011;5858;43.076;25.626;2023-06-22T13:23:10;5.97;;;5.38;;
11604;SDS011;5858;43.076;25.626;2023-06-22T13:25:37;5.90;;;5.30;;
11604;SDS011;5858;43.076;25.626;2023-06-22T13:28:05;5.57;;;5.15;;
11604;SDS011;5858;43.076;25.626;2023-06-22T13:30:33;6.63;;;5.63;;
11604;SDS011;5858;43.076;25.626;2023-06-22T13:33:00;6.43;;;5.82;;
11604;SDS011;5858;43.076;25.626;2023-06-22T13:35:27;7.32;;;6.10;;
11604;SDS011;5858;43.076;25.626;2023-06-22T13:37:56;5.72;;;5.22;;
11604;SDS011;5858;43.076;25.626;2023-06-22T13:40:23;5.95;;;5.45;;
11604;SDS011;5858;43.076;25.626;2023-06-22T13:42:50;6.28;;;5.78;;
11604;SDS011;5858;43.076;25.626;2023-06-22T13:45:17;5.82;;;5.25;;
11604;SDS011;5858;43.076;25.626;2023-06-22T13:47:46;8.07;;;5.43;;
11604;SDS011;5858;43.076;25.626;2023-06-22T13:50:13;6.35;;;5.85;;
11604;SDS011;5858;43.076;25.626;2023-06-22T13:52:43;6.03;;;5.47;;
11604;SDS011;5858;43.076;25.626;2023-06-22T13:55:13;6.43;;;5.82;;
11604;SDS011;5858;43.076;25.626;2023-06-22T13:57:40;6.00;;;5.50;;
11604;SDS011;5858;43.076;25.626;2023-06-22T14:00:08;6.32;;;5.75;;
11604;SDS011;5858;43.076;25.626;2023-06-22T14:02:37;6.53;;;5.93;;
11604;SDS011;5858;43.076;25.626;2023-06-22T14:05:09;6.18;;;5.68;;
11604;SDS011;5858;43.076;25.626;2023-06-22T14:07:38;6.20;;;5.70;;
11604;SDS011;5858;43.076;25.626;2023-06-22T14:10:07;6.38;;;5.78;;
11604;SDS011;5858;43.076;25.626;2023-06-22T14:12:34;6.25;;;5.72;;
11604;SDS011;5858;43.076;25.626;2023-06-22T14:15:04;6.53;;;5.93;;
11604;SDS011;5858;43.076;25.626;2023-06-22T14:17:36;6.25;;;5.43;;
11604;SDS011;5858;43.076;25.626;2023-06-22T14:20:13;5.95;;;5.45;;
11604;SDS011;5858;43.076;25.626;2023-06-22T14:22:43;6.07;;;5.47;;
11604;SDS011;5858;43.076;25.626;2023-06-22T14:25:10;8.15;;;5.80;;
11604;SDS011;5858;43.076;25.626;2023-06-22T14:27:37;6.03;;;5.43;;
11604;SDS011;5858;43.076;25.626;2023-06-22T14:30:04;6.57;;;5.88;;
11604;SDS011;5858;43.076;25.626;2023-06-22T14:32:33;6.32;;;5.72;;
11604;SDS011;5858;43.076;25.626;2023-06-22T14:35:01;6.32;;;5.55;;
11604;SDS011;5858;43.076;25.626;2023-06-22T14:37:32;6.47;;;5.88;;
11604;SDS011;5858;43.076;25.626;2023-06-22T14:39:59;7.72;;;6.25;;
11604;SDS011;5858;43.076;25.626;2023-06-22T14:42:26;6.35;;;5.78;;
11604;SDS011;5858;43.076;25.626;2023-06-22T14:44:58;6.10;;;5.60;;
11604;SDS011;5858;43.076;25.626;2023-06-22T14:47:25;6.53;;;5.93;;
11604;SDS011;5858;43.076;25.626;2023-06-22T14:49:54;6.38;;;5.88;;
11604;SDS011;5858;43.076;25.626;2023-06-22T14:52:21;6.60;;;6.00;;
11604;SDS011;5858;43.076;25.626;2023-06-22T14:54:57;5.43;;;5.03;;
11604;SDS011;5858;43.076;25.626;2023-06-22T14:57:37;6.97;;;6.07;;
11604;SDS011;5858;43.076;25.626;2023-06-22T15:00:05;7.43;;;5.38;;
11604;SDS011;5858;43.076;25.626;2023-06-22T15:02:33;6.45;;;5.55;;
11604;SDS011;5858;43.076;25.626;2023-06-22T15:05:03;6.57;;;5.90;;
11604;SDS011;5858;43.076;25.626;2023-06-22T15:07:34;6.85;;;5.63;;
11604;SDS011;5858;43.076;25.626;2023-06-22T15:10:13;6.45;;;5.95;;
11604;SDS011;5858;43.076;25.626;2023-06-22T15:12:45;6.57;;;5.97;;
11604;SDS011;5858;43.076;25.626;2023-06-22T15:15:12;9.00;;;5.80;;
11604;SDS011;5858;43.076;25.626;2023-06-22T15:17:41;6.88;;;6.18;;
11604;SDS011;5858;43.076;25.626;2023-06-22T15:20:16;6.50;;;5.90;;
11604;SDS011;5858;43.076;25.626;2023-06-22T15:22:48;6.50;;;6.00;;
11604;SDS011;5858;43.076;25.626;2023-06-22T15:25:25;6.45;;;5.88;;
11604;SDS011;5858;43.076;25.626;2023-06-22T15:27:57;6.32;;;5.82;;
11604;SDS011;5858;43.076;25.626;2023-06-22T15:30:36;5.72;;;5.22;;
11604;SDS011;5858;43.076;25.626;2023-06-22T15:33:08;5.85;;;5.32;;
11604;SDS011;5858;43.076;25.626;2023-06-22T15:35:38;6.45;;;5.68;;
11604;SDS011;5858;43.076;25.626;2023-06-22T15:38:10;7.03;;;6.32;;
11604;SDS011;5858;43.076;25.626;2023-06-22T15:40:40;6.38;;;5.78;;
11604;SDS011;5858;43.076;25.626;2023-06-22T15:43:12;7.18;;;6.57;;
11604;SDS011;5858;43.076;25.626;2023-06-22T15:45:42;6.68;;;6.07;;
11604;SDS011;5858;43.076;25.626;2023-06-22T15:48:09;6.80;;;6.20;;
11604;SDS011;5858;43.076;25.626;2023-06-22T15:50:36;7.07;;;6.38;;
11604;SDS011;5858;43.076;25.626;2023-06-22T15:53:04;6.82;;;6.07;;
11604;SDS011;5858;43.076;25.626;2023-06-22T15:55:31;7.07;;;6.45;;
11604;SDS011;5858;43.076;25.626;2023-06-22T15:58:01;9.43;;;6.75;;
11604;SDS011;5858;43.076;25.626;2023-06-22T16:00:28;6.15;;;5.65;;
11604;SDS011;5858;43.076;25.626;2023-06-22T16:02:56;7.68;;;6.80;;
11604;SDS011;5858;43.076;25.626;2023-06-22T16:05:23;6.50;;;5.97;;
11604;SDS011;5858;43.076;25.626;2023-06-22T16:07:54;7.38;;;6.20;;
11604;SDS011;5858;43.076;25.626;2023-06-22T16:10:22;7.32;;;6.63;;
11604;SDS011;5858;43.076;25.626;2023-06-22T16:12:49;8.25;;;5.85;;
11604;SDS011;5858;43.076;25.626;2023-06-22T16:15:18;6.63;;;6.13;;
11604;SDS011;5858;43.076;25.626;2023-06-22T16:17:47;7.00;;;6.40;;